Time;durP1;ratioP1;P1;durP2;ratioP2;P2;SDS_P1;SDS_P2;PMS_P1;PMS_P2;Temp;Humidity;BMP_temperature;BMP_pressure;BME280_temperature;BME280_humidity;BME280_pressure;Samples;Min_cycle;Max_cycle;Signal;HPM_P1;HPM_P2
2022/12/11 13:51:00;;;;;;;9.70;3.72;;;;;;;;;;5036384;28;86026;-65
2022/12/11 13:53:26;;;;;;;7.93;2.88;;;;;;;;;;5021829;28;86758;-63
2022/12/11 13:56:00;;;;;;;9.15;3.15;;;;;;;;;;5021266;28;86416;-65
2022/12/11 13:58:27;;;;;;;5.85;2.63;;;;;;;;;;5020739;28;86763;-67
2022/12/11 14:01:10;;;;;;;6.53;2.58;;;;;;;;;;5021320;28;86828;-65
2022/12/11 14:03:42;;;;;;;6.50;2.50;;;;;;;;;;5021667;28;86862;-64
2022/12/11 14:06:10;;;;;;;6.25;2.13;;;;;;;;;;5022277;28;86415;-67
2022/12/11 14:08:45;;;;;;;5.00;1.90;;;;;;;;;;5020419;28;86673;-68
2022/12/11 14:11:20;;;;;;;3.85;1.65;;;;;;;;;;5024469;28;86629;-68
2022/12/11 14:13:47;;;;;;;4.50;2.00;;;;;;;;;;5021823;27;87078;-72
2022/12/11 14:16:19;;;;;;;5.18;2.40;;;;;;;;;;5020606;28;86394;-66
2022/12/11 14:18:47;;;;;;;7.18;2.90;;;;;;;;;;5021621;28;87842;-69
2022/12/11 14:21:18;;;;;;;6.05;2.63;;;;;;;;;;5021770;28;86789;-66
2022/12/11 14:23:50;;;;;;;7.18;3.15;;;;;;;;;;5021857;28;86866;-67
2022/12/11 14:26:18;;;;;;;7.10;3.15;;;;;;;;;;5019318;28;86716;-69
2022/12/11 14:28:45;;;;;;;6.90;2.90;;;;;;;;;;5021764;28;86947;-68
2022/12/11 14:31:13;;;;;;;8.18;3.25;;;;;;;;;;5022530;28;86688;-67
2022/12/11 14:33:42;;;;;;;7.45;3.53;;;;;;;;;;5024423;28;86687;-68
2022/12/11 14:36:09;;;;;;;7.05;3.40;;;;;;;;;;5020503;28;87448;-67
2022/12/11 14:38:43;;;;;;;7.68;3.42;;;;;;;;;;5018748;28;86662;-67
2022/12/11 14:41:22;;;;;;;9.52;3.35;;;;;;;;;;5021323;28;87931;-67
2022/12/11 14:43:51;;;;;;;8.00;3.83;;;;;;;;;;5021851;28;86130;-65
2022/12/11 14:46:24;;;;;;;8.43;3.42;;;;;;;;;;5022093;27;86778;-65
2022/12/11 14:48:52;;;;;;;11.70;3.30;;;;;;;;;;5003752;28;86789;-65
2022/12/11 14:51:28;;;;;;;8.88;3.67;;;;;;;;;;5016325;28;86769;-70
2022/12/11 14:53:55;;;;;;;8.65;3.60;;;;;;;;;;5021733;28;86767;-64
2022/12/11 14:56:26;;;;;;;8.30;3.67;;;;;;;;;;5024846;28;86828;-67
2022/12/11 14:59:03;;;;;;;9.05;3.83;;;;;;;;;;5021590;27;87121;-67
2022/12/11 15:01:31;;;;;;;9.30;3.60;;;;;;;;;;5013286;28;87889;-66
2022/12/11 15:04:13;;;;;;;7.55;3.72;;;;;;;;;;5008165;28;86471;-69
2022/12/11 15:06:43;;;;;;;7.85;3.60;;;;;;;;;;5007710;28;87369;-67
2022/12/11 15:09:17;;;;;;;8.55;3.65;;;;;;;;;;5004986;28;86903;-67
2022/12/11 15:11:45;;;;;;;7.05;3.60;;;;;;;;;;5007683;28;87340;-66
2022/12/11 15:14:12;;;;;;;8.07;3.33;;;;;;;;;;5007626;28;87164;-66
2022/12/11 15:16:40;;;;;;;10.20;3.90;;;;;;;;;;5007531;28;86782;-68
2022/12/11 15:19:15;;;;;;;8.35;3.63;;;;;;;;;;5010183;28;86548;-68
2022/12/11 15:21:42;;;;;;;7.88;3.55;;;;;;;;;;5009747;28;86544;-67
2022/12/11 15:24:21;;;;;;;8.57;3.78;;;;;;;;;;5007851;28;86855;-70
2022/12/11 15:26:47;;;;;;;10.70;3.78;;;;;;;;;;5005060;28;87076;-74
2022/12/11 15:29:26;;;;;;;8.32;4.00;;;;;;;;;;5010939;28;86740;-63
2022/12/11 15:32:19;;;;;;;8.40;3.67;;;;;;;;;;4998617;28;86754;-63
2022/12/11 15:34:47;;;;;;;9.43;4.22;;;;;;;;;;5005943;28;87259;-61
2022/12/11 15:37:16;;;;;;;9.35;4.00;;;;;;;;;;5007569;28;86889;-65
2022/12/11 15:39:42;;;;;;;7.88;3.40;;;;;;;;;;5007212;28;86470;-64
2022/12/11 15:42:12;;;;;;;9.23;3.50;;;;;;;;;;5010338;28;87650;-65
2022/12/11 15:44:39;;;;;;;10.52;3.83;;;;;;;;;;5006782;28;86381;-64
2022/12/11 15:47:14;;;;;;;8.02;3.40;;;;;;;;;;5002957;28;87662;-63
2022/12/11 15:49:41;;;;;;;8.43;3.50;;;;;;;;;;5006111;28;86724;-63
2022/12/11 15:52:07;;;;;;;8.10;3.67;;;;;;;;;;5006358;28;86667;-63
2022/12/11 15:54:33;;;;;;;8.07;3.63;;;;;;;;;;5006407;28;86952;-63
2022/12/11 15:57:02;;;;;;;8.98;3.85;;;;;;;;;;5006713;28;86757;-63
2022/12/11 15:59:29;;;;;;;7.72;3.70;;;;;;;;;;5005927;28;86376;-63
2022/12/11 16:01:55;;;;;;;12.38;4.10;;;;;;;;;;5007016;28;87350;-63
2022/12/11 16:04:22;;;;;;;7.32;3.63;;;;;;;;;;5008833;28;86797;-63
2022/12/11 16:06:49;;;;;;;8.13;3.50;;;;;;;;;;5006538;28;87408;-63
2022/12/11 16:09:15;;;;;;;8.85;4.13;;;;;;;;;;5005853;28;86833;-64
2022/12/11 16:11:42;;;;;;;8.50;3.88;;;;;;;;;;5006482;28;86716;-64
2022/12/11 16:14:08;;;;;;;8.20;3.78;;;;;;;;;;5004759;28;86714;-64
2022/12/11 16:16:34;;;;;;;7.90;3.83;;;;;;;;;;5006724;28;87240;-64
2022/12/11 16:19:01;;;;;;;7.78;3.75;;;;;;;;;;5005953;28;86580;-64
2022/12/11 16:21:27;;;;;;;9.05;3.78;;;;;;;;;;5006301;28;87361;-64
2022/12/11 16:23:53;;;;;;;9.40;3.83;;;;;;;;;;5008924;28;87061;-64
2022/12/11 16:26:20;;;;;;;7.47;3.60;;;;;;;;;;5006242;28;87693;-64
2022/12/11 16:28:46;;;;;;;8.38;3.95;;;;;;;;;;5006727;28;86707;-64
2022/12/11 16:31:13;;;;;;;8.98;4.10;;;;;;;;;;5003325;28;86455;-64
2022/12/11 16:33:40;;;;;;;8.35;3.85;;;;;;;;;;5006080;28;86804;-65
2022/12/11 16:36:14;;;;;;;9.10;4.03;;;;;;;;;;5005893;28;86885;-64
2022/12/11 16:38:45;;;;;;;13.52;5.03;;;;;;;;;;5005874;28;87438;-64
2022/12/11 16:41:18;;;;;;;11.45;5.65;;;;;;;;;;5003017;28;86705;-64
2022/12/11 16:43:45;;;;;;;13.52;6.05;;;;;;;;;;5001767;28;87383;-65
2022/12/11 16:46:11;;;;;;;14.65;6.03;;;;;;;;;;5004156;28;86449;-64
2022/12/11 16:48:37;;;;;;;15.10;6.32;;;;;;;;;;5001910;28;87746;-64
2022/12/11 16:51:04;;;;;;;15.45;6.55;;;;;;;;;;5006239;28;86602;-64
2022/12/11 16:53:31;;;;;;;17.17;6.93;;;;;;;;;;5005992;28;87018;-64
2022/12/11 16:55:57;;;;;;;16.92;7.20;;;;;;;;;;4997512;28;86905;-64
2022/12/11 16:58:23;;;;;;;15.98;7.32;;;;;;;;;;5001806;28;87437;-64
2022/12/11 17:00:50;;;;;;;16.67;7.57;;;;;;;;;;4993705;28;86687;-65
2022/12/11 17:03:17;;;;;;;16.23;6.93;;;;;;;;;;5005981;28;87223;-64
2022/12/11 17:05:44;;;;;;;15.80;6.88;;;;;;;;;;5006167;28;87199;-64
2022/12/11 17:08:11;;;;;;;14.70;6.93;;;;;;;;;;5009053;28;86943;-64
2022/12/11 17:10:38;;;;;;;17.77;6.93;;;;;;;;;;5005485;28;86534;-64
2022/12/11 17:13:04;;;;;;;18.98;7.03;;;;;;;;;;5005864;28;87791;-64
2022/12/11 17:15:31;;;;;;;14.30;7.40;;;;;;;;;;5004636;28;86418;-64
2022/12/11 17:17:57;;;;;;;15.68;6.80;;;;;;;;;;5006047;28;86451;-64
2022/12/11 17:20:24;;;;;;;14.48;6.70;;;;;;;;;;5005457;28;86911;-64
2022/12/11 17:22:50;;;;;;;15.13;7.03;;;;;;;;;;5005851;28;87040;-64
2022/12/11 17:25:21;;;;;;;14.20;7.03;;;;;;;;;;5004417;28;87157;-64
2022/12/11 17:27:48;;;;;;;13.40;6.40;;;;;;;;;;5004559;28;89026;-64
2022/12/11 17:30:14;;;;;;;14.88;6.85;;;;;;;;;;5008082;28;86324;-64
2022/12/11 17:32:45;;;;;;;18.10;8.77;;;;;;;;;;5005759;28;86867;-64
2022/12/11 17:35:12;;;;;;;20.00;8.27;;;;;;;;;;5004862;28;87361;-64
2022/12/11 17:37:39;;;;;;;22.73;8.90;;;;;;;;;;5002882;28;86795;-65
2022/12/11 17:40:05;;;;;;;22.65;9.50;;;;;;;;;;5005243;28;87966;-64
2022/12/11 17:42:32;;;;;;;36.63;15.77;;;;;;;;;;5005564;28;87363;-64
2022/12/11 17:44:58;;;;;;;43.50;18.08;;;;;;;;;;5003724;28;88836;-64
2022/12/11 17:47:25;;;;;;;47.53;17.60;;;;;;;;;;5004293;28;88352;-64
2022/12/11 17:49:51;;;;;;;37.08;16.25;;;;;;;;;;5001712;28;88987;-64
2022/12/11 17:52:18;;;;;;;44.60;15.90;;;;;;;;;;5006783;28;88980;-64
2022/12/11 17:54:44;;;;;;;36.50;14.98;;;;;;;;;;5003556;28;88949;-64
2022/12/11 17:57:11;;;;;;;31.55;13.55;;;;;;;;;;5003895;28;89266;-64
2022/12/11 17:59:37;;;;;;;33.50;13.98;;;;;;;;;;5002652;28;88562;-64
2022/12/11 18:02:03;;;;;;;32.72;12.95;;;;;;;;;;5002960;28;89554;-64
2022/12/11 18:04:30;;;;;;;29.88;12.05;;;;;;;;;;5002834;28;89264;-64
2022/12/11 18:06:56;;;;;;;30.27;12.35;;;;;;;;;;5002398;28;88882;-64
2022/12/11 18:09:22;;;;;;;28.55;12.18;;;;;;;;;;5002024;28;89073;-64
2022/12/11 18:11:50;;;;;;;28.00;10.95;;;;;;;;;;5005880;28;89756;-64
2022/12/11 18:14:16;;;;;;;31.38;11.23;;;;;;;;;;4997735;28;90103;-65
2022/12/11 18:16:43;;;;;;;24.42;10.57;;;;;;;;;;4998827;28;88582;-65
2022/12/11 18:19:09;;;;;;;24.45;10.32;;;;;;;;;;4999383;28;88290;-64
2022/12/11 18:21:39;;;;;;;23.95;9.57;;;;;;;;;;5000208;28;89027;-63
2022/12/11 18:24:05;;;;;;;21.67;8.80;;;;;;;;;;5002387;28;88901;-64
2022/12/11 18:26:32;;;;;;;24.20;9.65;;;;;;;;;;5003692;28;87852;-63
2022/12/11 18:28:58;;;;;;;23.85;9.32;;;;;;;;;;5002912;28;87829;-64
2022/12/11 18:31:24;;;;;;;21.08;8.63;;;;;;;;;;5003394;28;88146;-64
2022/12/11 18:33:51;;;;;;;19.25;8.50;;;;;;;;;;5005272;28;88889;-64
2022/12/11 18:36:19;;;;;;;22.75;8.70;;;;;;;;;;5004673;28;88768;-65
2022/12/11 18:38:46;;;;;;;19.00;8.40;;;;;;;;;;5006573;28;89427;-64
2022/12/11 18:41:13;;;;;;;;;;;;;;;;;;5007125;28;87711;-64
2022/12/11 18:43:39;;;;;;;18.85;7.53;;;;;;;;;;5007387;28;118114;-64
2022/12/11 18:46:07;;;;;;;21.70;8.27;;;;;;;;;;5005160;28;88059;-64
2022/12/11 18:48:33;;;;;;;17.25;7.63;;;;;;;;;;5002237;28;88136;-64
2022/12/11 18:51:00;;;;;;;18.13;7.35;;;;;;;;;;5002512;28;87941;-64
2022/12/11 18:53:26;;;;;;;18.40;7.35;;;;;;;;;;5007182;28;88052;-64
2022/12/11 18:55:53;;;;;;;19.15;7.68;;;;;;;;;;5008960;28;88255;-65
2022/12/11 18:58:25;;;;;;;15.55;6.15;;;;;;;;;;5005097;28;88932;-66
2022/12/11 19:00:52;;;;;;;13.13;6.25;;;;;;;;;;5006612;28;87745;-65
2022/12/11 19:03:18;;;;;;;17.63;6.38;;;;;;;;;;5006123;28;87915;-69
2022/12/11 19:05:44;;;;;;;16.48;6.47;;;;;;;;;;5007056;28;88843;-68
2022/12/11 19:08:12;;;;;;;14.20;6.18;;;;;;;;;;5007112;28;87624;-69
2022/12/11 19:10:43;;;;;;;15.15;6.75;;;;;;;;;;5006528;28;88551;-67
2022/12/11 19:13:10;;;;;;;14.82;6.68;;;;;;;;;;5005621;28;88135;-70
2022/12/11 19:15:37;;;;;;;14.75;7.07;;;;;;;;;;5007096;28;86961;-68
2022/12/11 19:18:04;;;;;;;14.82;5.97;;;;;;;;;;5008630;28;88142;-69
2022/12/11 19:20:30;;;;;;;14.63;6.00;;;;;;;;;;5004437;28;88068;-69
2022/12/11 19:23:14;;;;;;;12.52;5.93;;;;;;;;;;5005616;28;88248;-65
2022/12/11 19:25:42;;;;;;;13.63;6.28;;;;;;;;;;5005898;28;88743;-67
2022/12/11 19:28:08;;;;;;;12.93;5.80;;;;;;;;;;5006816;28;87980;-67
2022/12/11 19:30:35;;;;;;;12.32;5.65;;;;;;;;;;5008106;28;88328;-68
2022/12/11 19:33:02;;;;;;;11.02;5.40;;;;;;;;;;5006605;28;88709;-67
2022/12/11 19:35:28;;;;;;;11.73;6.47;;;;;;;;;;5006152;28;87750;-67
2022/12/11 19:37:54;;;;;;;14.48;5.32;;;;;;;;;;5007290;28;88448;-69
2022/12/11 19:40:25;;;;;;;12.63;5.28;;;;;;;;;;5009531;28;87180;-65
2022/12/11 19:42:52;;;;;;;10.70;5.55;;;;;;;;;;5006884;28;88068;-67
2022/12/11 19:45:18;;;;;;;10.63;4.63;;;;;;;;;;5003096;28;88378;-66
2022/12/11 19:47:45;;;;;;;12.40;5.20;;;;;;;;;;5011057;28;88577;-66
2022/12/11 19:50:11;;;;;;;10.93;5.00;;;;;;;;;;5007712;28;88709;-66
2022/12/11 19:52:37;;;;;;;10.48;5.15;;;;;;;;;;5006753;28;87768;-64
2022/12/11 19:55:13;;;;;;;;;;;;;;;;;;5006742;28;88055;-64
2022/12/11 19:57:40;;;;;;;9.93;4.30;;;;;;;;;;5007305;28;108333;-63
2022/12/11 20:00:07;;;;;;;9.52;4.65;;;;;;;;;;5005759;28;88183;-64
2022/12/11 20:02:37;;;;;;;8.52;3.95;;;;;;;;;;5005235;28;87927;-65
2022/12/11 20:05:04;;;;;;;8.32;3.92;;;;;;;;;;5006261;28;87588;-66
2022/12/11 20:07:30;;;;;;;9.15;3.75;;;;;;;;;;5006425;28;87817;-66
2022/12/11 20:09:59;;;;;;;8.73;3.70;;;;;;;;;;5005801;28;88030;-66
2022/12/11 20:12:25;;;;;;;7.70;3.30;;;;;;;;;;5000728;28;89636;-64
2022/12/11 20:14:51;;;;;;;8.10;3.60;;;;;;;;;;4996498;28;88213;-64
2022/12/11 20:17:18;;;;;;;8.05;3.40;;;;;;;;;;5006575;28;87832;-64
2022/12/11 20:19:44;;;;;;;7.60;3.13;;;;;;;;;;5005251;28;89541;-64
2022/12/11 20:22:11;;;;;;;7.15;3.55;;;;;;;;;;5007620;28;89290;-63
2022/12/11 20:24:37;;;;;;;6.55;2.85;;;;;;;;;;5003936;28;89489;-64
2022/12/11 20:27:04;;;;;;;6.78;2.85;;;;;;;;;;4998846;28;87961;-64
2022/12/11 20:29:30;;;;;;;7.95;3.15;;;;;;;;;;5002032;28;87855;-69
2022/12/11 20:31:58;;;;;;;7.55;3.17;;;;;;;;;;5008454;28;88104;-63
2022/12/11 20:34:25;;;;;;;7.03;2.65;;;;;;;;;;5009141;28;87877;-64
2022/12/11 20:36:52;;;;;;;6.95;2.90;;;;;;;;;;5005603;28;88855;-64
2022/12/11 20:39:18;;;;;;;6.00;2.50;;;;;;;;;;5005549;28;88428;-65
2022/12/11 20:41:44;;;;;;;7.65;2.63;;;;;;;;;;5005585;28;87733;-65
2022/12/11 20:44:11;;;;;;;6.30;2.45;;;;;;;;;;5001003;28;87896;-65
2022/12/11 20:46:37;;;;;;;6.80;2.70;;;;;;;;;;5004918;28;87686;-62
2022/12/11 20:49:08;;;;;;;39.13;18.48;;;;;;;;;;4985635;28;88302;-61
2022/12/11 20:51:35;;;;;;;150.05;97.68;;;;;;;;;;5002752;28;89805;-62
2022/12/11 20:54:01;;;;;;;98.70;63.58;;;;;;;;;;5003774;28;89590;-70
2022/12/11 20:56:28;;;;;;;73.38;47.85;;;;;;;;;;4999329;28;88663;-67
2022/12/11 20:58:55;;;;;;;53.85;37.15;;;;;;;;;;5002324;28;88631;-66
2022/12/11 21:01:24;;;;;;;46.08;28.40;;;;;;;;;;5002759;28;90481;-68
2022/12/11 21:03:52;;;;;;;35.85;22.80;;;;;;;;;;5001988;28;95944;-66
2022/12/11 21:06:27;;;;;;;29.85;17.63;;;;;;;;;;5004689;28;88702;-66
2022/12/11 21:08:53;;;;;;;26.50;15.05;;;;;;;;;;5001579;28;88769;-65
2022/12/11 21:11:20;;;;;;;21.17;13.27;;;;;;;;;;5003315;28;88681;-64
2022/12/11 21:13:48;;;;;;;21.50;11.85;;;;;;;;;;4999711;28;89426;-68
2022/12/11 21:16:16;;;;;;;20.77;10.80;;;;;;;;;;5000204;28;89654;-67
2022/12/11 21:18:45;;;;;;;17.58;10.30;;;;;;;;;;5004686;28;89057;-70
2022/12/11 21:21:11;;;;;;;16.13;9.15;;;;;;;;;;4996613;28;88997;-69
2022/12/11 21:23:38;;;;;;;17.23;8.88;;;;;;;;;;5000178;28;90056;-69
2022/12/11 21:26:05;;;;;;;16.27;8.30;;;;;;;;;;5003560;28;88527;-70
2022/12/11 21:28:31;;;;;;;15.38;7.95;;;;;;;;;;5007803;28;87584;-70
2022/12/11 21:31:02;;;;;;;14.30;7.70;;;;;;;;;;5002941;28;88072;-69
2022/12/11 21:33:30;;;;;;;14.52;7.30;;;;;;;;;;5004766;28;87967;-69
2022/12/11 21:35:57;;;;;;;12.48;7.25;;;;;;;;;;4986920;28;90806;-70
2022/12/11 21:38:23;;;;;;;13.00;6.80;;;;;;;;;;5004913;28;88749;-73
2022/12/11 21:40:50;;;;;;;12.32;6.85;;;;;;;;;;5006560;28;87711;-74
2022/12/11 21:43:17;;;;;;;13.38;6.40;;;;;;;;;;5009038;28;88073;-71
2022/12/11 21:45:43;;;;;;;13.52;6.68;;;;;;;;;;5004958;28;87559;-70
2022/12/11 21:48:27;;;;;;;10.57;5.95;;;;;;;;;;5004805;28;87575;-69
2022/12/11 21:50:54;;;;;;;11.65;6.22;;;;;;;;;;5006212;28;88817;-75
2022/12/11 21:53:20;;;;;;;11.75;6.22;;;;;;;;;;5002010;28;87894;-72
2022/12/11 21:55:47;;;;;;;11.50;6.28;;;;;;;;;;5005076;28;88985;-72
2022/12/11 21:58:14;;;;;;;11.95;5.60;;;;;;;;;;5004987;28;88266;-74
2022/12/11 22:00:41;;;;;;;10.18;5.35;;;;;;;;;;4989277;28;87884;-74
2022/12/11 22:03:07;;;;;;;10.90;5.63;;;;;;;;;;5004587;28;87917;-75
2022/12/11 22:05:34;;;;;;;10.23;5.38;;;;;;;;;;5004250;28;88180;-74
2022/12/11 22:08:00;;;;;;;15.07;5.38;;;;;;;;;;5000069;28;90042;-71
2022/12/11 22:10:27;;;;;;;10.43;5.22;;;;;;;;;;4991275;28;87939;-73
2022/12/11 22:12:53;;;;;;;10.48;5.22;;;;;;;;;;4999447;28;88214;-65
2022/12/11 22:15:20;;;;;;;10.00;4.97;;;;;;;;;;4996280;28;88947;-67
2022/12/11 22:17:46;;;;;;;8.93;4.75;;;;;;;;;;5007983;28;89132;-72
2022/12/11 22:20:13;;;;;;;9.85;4.90;;;;;;;;;;5007199;28;88061;-73
2022/12/11 22:22:40;;;;;;;9.25;4.90;;;;;;;;;;5003962;28;88558;-70
2022/12/11 22:25:06;;;;;;;9.30;4.82;;;;;;;;;;5006517;28;88201;-74
2022/12/11 22:27:33;;;;;;;10.20;4.82;;;;;;;;;;4990325;28;87878;-68
2022/12/11 22:29:59;;;;;;;9.48;4.40;;;;;;;;;;5015106;28;88114;-68
2022/12/11 22:32:26;;;;;;;9.88;4.50;;;;;;;;;;5012057;28;88566;-68
2022/12/11 22:34:55;;;;;;;10.57;4.60;;;;;;;;;;5007208;28;87943;-69
2022/12/11 22:37:21;;;;;;;8.48;4.32;;;;;;;;;;5007999;28;88351;-71
2022/12/11 22:39:48;;;;;;;9.10;4.50;;;;;;;;;;5005539;28;89284;-69
2022/12/11 22:42:14;;;;;;;8.18;4.07;;;;;;;;;;5000049;28;87982;-70
2022/12/11 22:44:41;;;;;;;8.88;4.10;;;;;;;;;;5007271;28;88207;-71
2022/12/11 22:47:08;;;;;;;8.70;4.18;;;;;;;;;;5006519;28;87911;-72
2022/12/11 22:49:34;;;;;;;8.68;3.88;;;;;;;;;;5006182;28;87870;-71
2022/12/11 22:52:00;;;;;;;9.20;5.07;;;;;;;;;;5007375;28;89021;-66
2022/12/11 22:54:27;;;;;;;9.38;3.78;;;;;;;;;;5009826;28;88055;-66
2022/12/11 22:56:53;;;;;;;23.48;14.77;;;;;;;;;;4996037;28;87792;-71
2022/12/11 22:59:21;;;;;;;24.90;15.38;;;;;;;;;;5005654;28;88939;-71
2022/12/11 23:01:47;;;;;;;12.15;6.53;;;;;;;;;;5005319;28;88881;-63
2022/12/11 23:04:14;;;;;;;9.77;4.78;;;;;;;;;;5005868;28;88923;-63
2022/12/11 23:06:40;;;;;;;9.27;4.63;;;;;;;;;;5006430;28;87890;-62
2022/12/11 23:09:07;;;;;;;9.30;4.55;;;;;;;;;;5006091;28;88131;-64
2022/12/11 23:11:35;;;;;;;8.50;3.90;;;;;;;;;;5006167;28;88348;-64
2022/12/11 23:14:02;;;;;;;8.32;4.20;;;;;;;;;;5003733;28;87972;-64
2022/12/11 23:16:29;;;;;;;7.50;4.00;;;;;;;;;;5000101;28;87889;-64
2022/12/11 23:18:56;;;;;;;7.75;3.88;;;;;;;;;;4999283;28;88196;-64
2022/12/11 23:21:23;;;;;;;7.90;3.63;;;;;;;;;;5002491;28;88397;-64
2022/12/11 23:23:50;;;;;;;7.93;3.50;;;;;;;;;;5005527;28;89196;-63
2022/12/11 23:26:17;;;;;;;7.28;3.25;;;;;;;;;;5004869;28;88228;-62
2022/12/11 23:28:44;;;;;;;6.70;3.22;;;;;;;;;;5006439;28;88854;-63
2022/12/11 23:31:11;;;;;;;7.25;3.40;;;;;;;;;;5009431;28;87893;-64
2022/12/11 23:33:37;;;;;;;7.10;3.40;;;;;;;;;;5006219;28;87650;-63
2022/12/11 23:36:04;;;;;;;6.90;3.25;;;;;;;;;;5006514;28;87899;-63
2022/12/11 23:38:30;;;;;;;22.58;14.00;;;;;;;;;;5009387;28;88212;-60
2022/12/11 23:40:59;;;;;;;26.00;15.80;;;;;;;;;;5005568;28;88644;-61
2022/12/11 23:43:26;;;;;;;28.00;16.08;;;;;;;;;;5005694;28;88260;-61
2022/12/11 23:45:53;;;;;;;13.70;6.50;;;;;;;;;;5005937;28;89635;-80
2022/12/11 23:48:19;;;;;;;12.18;5.45;;;;;;;;;;5004052;28;88341;-71
2022/12/11 23:50:46;;;;;;;9.48;4.57;;;;;;;;;;5005650;28;88159;-74
2022/12/11 23:53:13;;;;;;;8.15;4.00;;;;;;;;;;5006350;28;88516;-74
2022/12/11 23:55:41;;;;;;;7.82;3.20;;;;;;;;;;5006674;28;88668;-74
2022/12/11 23:58:07;;;;;;;8.98;3.55;;;;;;;;;;5006839;28;88357;-73
